createdAt,value
2022-11-10T00:00:18.701Z,100099.25
2022-11-10T00:01:08.098Z,100094.22
2022-11-10T00:01:57.703Z,100095.63
2022-11-10T00:02:50.968Z,100098.31
2022-11-10T00:03:45.225Z,100102.66
2022-11-10T00:05:02.841Z,100105.19
2022-11-10T00:05:49.334Z,100113.31
2022-11-10T00:06:39.808Z,100103.25
2022-11-10T00:07:49.493Z,100119.47
2022-11-10T00:08:38.583Z,100111.22
2022-11-10T00:09:37.847Z,100112.47
2022-11-10T00:10:33.038Z,100115.28
2022-11-10T00:11:21.440Z,100113.56
2022-11-10T00:13:20.907Z,100114.88
2022-11-10T00:14:07.355Z,100116.28
2022-11-10T00:14:54.408Z,100117.41
2022-11-10T00:15:40.834Z,100111.34
2022-11-10T00:16:27.413Z,100116.69
2022-11-10T00:17:17.792Z,100124.66
2022-11-10T00:18:04.785Z,100120.22
2022-11-10T00:18:54.535Z,100121.88
2022-11-10T00:19:41.528Z,100123.97
2022-11-10T00:20:29.108Z,100125.66
2022-11-10T00:21:16.218Z,100120.84
2022-11-10T00:22:04.495Z,100124.94
2022-11-10T00:23:27.363Z,100124.41
2022-11-10T00:24:38.035Z,100132.97
2022-11-10T00:25:33.284Z,100125.72
2022-11-10T00:26:23.391Z,100133.13
2022-11-10T00:27:20.838Z,100134.81
2022-11-10T00:31:52.961Z,100141.38
2022-11-10T00:32:45.539Z,100135.13
2022-11-10T00:37:18.709Z,100137.97
2022-11-10T00:38:06.157Z,100137.41
2022-11-10T00:43:02.352Z,100135.44
2022-11-10T00:43:52.244Z,100137.97
2022-11-10T00:44:42.730Z,100138.84
2022-11-10T00:45:36.561Z,100141.91
2022-11-10T00:46:25.977Z,100145.53
2022-11-10T00:47:21.259Z,100141.31
2022-11-10T00:48:10.848Z,100140.06
2022-11-10T00:48:59.144Z,100149.38
2022-11-10T00:49:49.183Z,100146.38
2022-11-10T00:50:39.929Z,100146.38
2022-11-10T00:51:41.262Z,100153.94
2022-11-10T00:52:34.642Z,100153.00
2022-11-10T00:53:24.541Z,100156.34
2022-11-10T00:54:12.075Z,100152.03
2022-11-10T00:55:01.359Z,100150.91
2022-11-10T00:55:49.574Z,100160.16
2022-11-10T00:56:37.613Z,100153.81
2022-11-10T00:57:32.018Z,100149.50
2022-11-10T00:58:20.814Z,100155.66
2022-11-10T00:59:11.605Z,100165.22
2022-11-10T01:00:01.135Z,100169.59
2022-11-10T01:00:50.702Z,100165.72
2022-11-10T01:01:40.265Z,100161.09
2022-11-10T01:02:34.545Z,100154.81
2022-11-10T01:03:24.939Z,100159.88
2022-11-10T01:04:12.163Z,100161.09
2022-11-10T01:05:03.041Z,100153.38
2022-11-10T01:05:51.090Z,100155.91
2022-11-10T01:06:38.467Z,100174.16
2022-11-10T01:07:31.648Z,100161.69
2022-11-10T01:08:21.153Z,100162.69
2022-11-10T01:09:10.342Z,100170.34
2022-11-10T01:09:58.025Z,100168.78
2022-11-10T01:10:46.194Z,100167.41
2022-11-10T01:11:32.302Z,100163.78
2022-11-10T01:12:20.335Z,100160.00
2022-11-10T01:13:11.465Z,100160.84
2022-11-10T01:13:58.145Z,100170.78
2022-11-10T01:14:46.455Z,100154.81
2022-11-10T01:15:34.867Z,100156.50
2022-11-10T01:16:16.835Z,100158.44
2022-11-10T01:17:07.363Z,100161.94
2022-11-10T01:18:03.907Z,100150.47
2022-11-10T01:18:53.807Z,100163.78
2022-11-10T01:19:45.812Z,100154.69
2022-11-10T01:20:36.650Z,100159.88
2022-11-10T01:21:26.667Z,100161.81
2022-11-10T01:22:18.980Z,100155.53
2022-11-10T01:23:15.008Z,100161.56
2022-11-10T01:24:04.771Z,100168.25
2022-11-10T01:24:54.739Z,100163.50
2022-11-10T01:25:46.957Z,100167.00
2022-11-10T01:26:36.842Z,100172.22
2022-11-10T01:27:30.778Z,100176.13
2022-11-10T01:28:21.220Z,100167.13
2022-11-10T01:29:11.631Z,100176.81
2022-11-10T01:30:01.506Z,100170.78
2022-11-10T01:30:52.546Z,100181.44
2022-11-10T01:31:42.579Z,100179.50
2022-11-10T01:32:37.560Z,100177.78
2022-11-10T01:33:29.114Z,100176.94
2022-11-10T01:34:19.223Z,100177.66
2022-11-10T01:35:08.688Z,100187.72
2022-11-10T01:35:56.813Z,100184.94
2022-11-10T01:36:45.911Z,100187.59
2022-11-10T01:37:39.464Z,100189.19
2022-11-10T01:38:28.808Z,100190.13
2022-11-10T01:39:18.377Z,100187.47
2022-11-10T01:40:10.915Z,100194.63
2022-11-10T01:41:01.083Z,100201.63
2022-11-10T01:41:51.177Z,100197.28
2022-11-10T01:42:50.397Z,100203.84
2022-11-10T01:43:43.793Z,100204.41
2022-11-10T01:44:37.571Z,100201.75
2022-11-10T01:45:39.976Z,100198.25
2022-11-10T01:46:30.753Z,100203.00
2022-11-10T01:47:20.582Z,100207.19
2022-11-10T01:48:17.596Z,100202.75
2022-11-10T01:49:04.514Z,100199.09
2022-11-10T01:49:52.450Z,100199.09
2022-11-10T01:50:41.013Z,100207.94
2022-11-10T01:51:29.199Z,100200.78
2022-11-10T01:52:17.398Z,100200.78
2022-11-10T01:53:13.252Z,100197.16
2022-11-10T01:54:10.262Z,100191.66
2022-11-10T01:54:57.591Z,100204.66
2022-11-10T01:55:44.930Z,100199.09
2022-11-10T01:56:31.642Z,100209.75
2022-11-10T01:57:18.898Z,100202.88
2022-11-10T01:58:06.309Z,100203.72
2022-11-10T01:58:54.640Z,100202.75
2022-11-10T01:59:48.848Z,100200.78
2022-11-10T02:00:35.524Z,100202.63
2022-11-10T02:01:24.781Z,100197.41
2022-11-10T02:02:24.278Z,100201.88
2022-11-10T02:03:13.741Z,100207.31
2022-11-10T02:04:01.773Z,100203.84
2022-11-10T02:04:56.263Z,100202.88
2022-11-10T02:05:45.574Z,100201.88
2022-11-10T02:06:34.635Z,100202.63
2022-11-10T02:07:24.511Z,100205.28
2022-11-10T02:08:18.550Z,100209.75
2022-11-10T02:09:08.844Z,100203.44
2022-11-10T02:09:59.119Z,100201.28
2022-11-10T02:10:49.283Z,100209.16
2022-11-10T02:11:40.064Z,100216.56
2022-11-10T02:12:30.925Z,100210.00
2022-11-10T02:13:26.990Z,100215.31
2022-11-10T02:14:15.903Z,100217.97
2022-11-10T02:15:04.464Z,100226.00
2022-11-10T02:15:51.803Z,100216.94
2022-11-10T02:16:40.980Z,100219.94
2022-11-10T02:17:28.810Z,100213.66
2022-11-10T02:18:17.572Z,100222.22
2022-11-10T02:20:11.836Z,100229.94
2022-11-10T02:21:02.313Z,100228.63
2022-11-10T02:21:52.356Z,100225.00
2022-11-10T02:22:40.927Z,100223.59
2022-11-10T02:23:38.203Z,100230.31
2022-11-10T02:24:36.884Z,100231.16
2022-11-10T02:25:24.828Z,100218.72
2022-11-10T02:26:13.120Z,100230.59
2022-11-10T02:27:05.456Z,100230.44
2022-11-10T02:27:57.936Z,100233.00
2022-11-10T02:28:47.812Z,100229.63
2022-11-10T02:29:43.149Z,100227.09
2022-11-10T02:30:34.373Z,100229.63
2022-11-10T02:31:27.793Z,100231.28
2022-11-10T02:32:20.939Z,100236.34
2022-11-10T02:33:13.614Z,100231.78
2022-11-10T02:34:05.189Z,100236.09
2022-11-10T02:35:02.251Z,100238.91
2022-11-10T02:35:52.420Z,100239.03
2022-11-10T02:36:43.117Z,100239.03
2022-11-10T02:37:32.635Z,100233.13
2022-11-10T02:38:30.323Z,100241.69
2022-11-10T02:39:20.275Z,100234.38
2022-11-10T02:40:19.144Z,100227.66
2022-11-10T02:41:06.705Z,100240.16
2022-11-10T02:41:54.975Z,100240.97
2022-11-10T02:42:42.557Z,100239.03
2022-11-10T02:43:32.813Z,100238.31
2022-11-10T02:44:21.881Z,100239.03
2022-11-10T02:45:10.244Z,100245.22
2022-11-10T02:46:04.838Z,100236.09
2022-11-10T02:46:55.693Z,100244.09
2022-11-10T02:47:45.584Z,100231.03
2022-11-10T02:48:38.640Z,100234.69
2022-11-10T02:49:25.476Z,100240.84
2022-11-10T02:50:15.692Z,100235.91
2022-11-10T02:51:05.751Z,100240.97
2022-11-10T02:51:57.445Z,100249.09
2022-11-10T02:52:47.447Z,100245.59
2022-11-10T02:53:41.026Z,100246.31
2022-11-10T02:54:31.173Z,100247.88
2022-11-10T02:55:21.398Z,100247.00
2022-11-10T02:56:10.751Z,100243.38
2022-11-10T02:56:59.587Z,100245.34
2022-11-10T02:57:49.516Z,100248.97
2022-11-10T02:58:38.174Z,100246.06
2022-11-10T02:59:31.578Z,100246.75
2022-11-10T03:00:20.868Z,100245.94
2022-11-10T03:01:10.585Z,100247.00
2022-11-10T03:01:59.999Z,100248.84
2022-11-10T03:02:48.880Z,100252.34
2022-11-10T03:03:37.874Z,100256.69
2022-11-10T03:04:24.244Z,100251.38
2022-11-10T03:05:09.984Z,100256.69
2022-11-10T03:05:55.691Z,100260.31
2022-11-10T03:06:42.602Z,100257.66
2022-11-10T03:07:27.767Z,100258.78
2022-11-10T03:08:14.342Z,100256.00
2022-11-10T03:09:05.890Z,100256.94
2022-11-10T03:09:51.783Z,100261.31
2022-11-10T03:10:39.766Z,100260.44
2022-11-10T03:11:30.989Z,100264.69
2022-11-10T03:12:18.427Z,100266.75
2022-11-10T03:13:05.214Z,100262.16
2022-11-10T03:14:02.091Z,100268.31
2022-11-10T03:14:53.542Z,100268.31
2022-11-10T03:15:42.489Z,100277.28
2022-11-10T03:16:31.035Z,100279.22
2022-11-10T03:17:19.489Z,100282.00
2022-11-10T03:18:07.284Z,100284.53
2022-11-10T03:18:56.176Z,100284.53
2022-11-10T03:19:44.944Z,100284.81
2022-11-10T03:20:37.978Z,100287.25
2022-11-10T03:21:27.259Z,100291.09
2022-11-10T03:22:15.626Z,100284.81
2022-11-10T03:23:05.729Z,100282.00
2022-11-10T03:23:59.884Z,100278.97
2022-11-10T03:24:47.862Z,100277.28
2022-11-10T03:25:42.538Z,100280.06
2022-11-10T03:26:30.389Z,100273.44
2022-11-10T03:27:17.854Z,100270.50
2022-11-10T03:28:07.244Z,100279.22
2022-11-10T03:28:56.626Z,100268.56
2022-11-10T03:29:45.940Z,100262.41
2022-11-10T03:30:34.663Z,100264.47
2022-11-10T03:31:28.206Z,100257.34
2022-11-10T03:32:17.661Z,100257.34
2022-11-10T03:33:06.948Z,100262.41
2022-11-10T03:34:00.323Z,100265.78
2022-11-10T03:34:47.133Z,100265.91
2022-11-10T03:35:35.368Z,100265.91
2022-11-10T03:36:27.153Z,100270.38
2022-11-10T03:37:21.090Z,100272.22
2022-11-10T03:38:07.113Z,100265.06
2022-11-10T03:38:55.176Z,100267.84
2022-11-10T03:39:44.706Z,100266.91
2022-11-10T03:40:50.771Z,100270.50
2022-11-10T03:41:40.150Z,100271.22
2022-11-10T03:42:32.435Z,100275.59
2022-11-10T03:43:20.539Z,100270.50
2022-11-10T03:44:11.459Z,100282.00
2022-11-10T03:44:59.122Z,100276.69
2022-11-10T03:45:46.369Z,100278.50
2022-11-10T03:46:34.310Z,100281.16
2022-11-10T03:47:22.453Z,100279.22
2022-11-10T03:48:11.106Z,100290.00
2022-11-10T03:48:58.532Z,100286.50
2022-11-10T03:49:52.007Z,100295.19
2022-11-10T03:50:40.705Z,100298.84
2022-11-10T03:51:28.926Z,100297.97
2022-11-10T03:52:17.329Z,100298.72
2022-11-10T03:53:06.788Z,100295.94
2022-11-10T03:53:55.552Z,100297.72
2022-11-10T03:54:44.502Z,100303.91
2022-11-10T03:55:36.887Z,100306.59
2022-11-10T03:56:26.483Z,100299.44
2022-11-10T03:57:15.443Z,100311.91
2022-11-10T03:58:04.811Z,100316.38
2022-11-10T03:58:56.494Z,100310.91
2022-11-10T03:59:46.674Z,100311.03
2022-11-10T04:00:36.086Z,100306.69
2022-11-10T04:01:25.031Z,100301.97
2022-11-10T04:02:13.307Z,100309.94
2022-11-10T04:03:01.312Z,100310.91
2022-11-10T04:03:51.496Z,100301.97
2022-11-10T04:04:42.589Z,100305.47
2022-11-10T04:05:29.369Z,100309.25
2022-11-10T04:06:15.450Z,100310.91
2022-11-10T04:07:03.212Z,100307.41
2022-11-10T04:07:48.693Z,100311.91
2022-11-10T04:08:34.530Z,100312.03
2022-11-10T04:09:26.269Z,100314.56
2022-11-10T04:10:13.596Z,100313.56
2022-11-10T04:10:59.508Z,100312.88
2022-11-10T04:11:45.301Z,100312.63
2022-11-10T04:12:32.429Z,100319.53
2022-11-10T04:13:18.844Z,100317.94
2022-11-10T04:14:12.154Z,100309.94
2022-11-10T04:14:59.907Z,100319.53
2022-11-10T04:15:46.881Z,100323.97
2022-11-10T04:16:33.642Z,100324.97
2022-11-10T04:17:20.069Z,100324.97
2022-11-10T04:18:08.756Z,100330.41
2022-11-10T04:18:57.217Z,100333.09
2022-11-10T04:19:53.330Z,100332.09
2022-11-10T04:20:42.158Z,100339.13
2022-11-10T04:21:30.222Z,100340.94
2022-11-10T04:22:18.627Z,100345.41
2022-11-10T04:23:07.814Z,100348.94
2022-11-10T04:23:58.956Z,100342.88
2022-11-10T04:24:47.824Z,100344.81
2022-11-10T04:25:41.723Z,100351.59
2022-11-10T04:26:29.842Z,100353.75
2022-11-10T04:27:18.099Z,100354.38
2022-11-10T04:28:07.190Z,100355.22
2022-11-10T04:28:56.447Z,100359.72
2022-11-10T04:29:44.277Z,100363.34
2022-11-10T04:30:32.433Z,100359.72
2022-11-10T04:31:25.954Z,100362.50
2022-11-10T04:32:15.481Z,100363.34
2022-11-10T04:33:02.763Z,100360.53
2022-11-10T04:33:55.122Z,100358.72
2022-11-10T04:34:43.437Z,100358.72
2022-11-10T04:35:31.877Z,100371.19
2022-11-10T04:36:20.041Z,100367.81
2022-11-10T04:37:11.404Z,100367.69
2022-11-10T04:37:59.531Z,100375.69
2022-11-10T04:38:47.736Z,100369.38
2022-11-10T04:39:34.878Z,100370.34
2022-11-10T04:40:21.383Z,100371.19
2022-11-10T04:41:10.576Z,100374.94
2022-11-10T04:42:02.549Z,100369.63
2022-11-10T04:42:51.229Z,100368.78
2022-11-10T04:43:39.297Z,100376.75
2022-11-10T04:44:26.410Z,100374.81
2022-11-10T04:45:14.064Z,100366.81
2022-11-10T04:46:01.251Z,100376.53
2022-11-10T04:46:48.730Z,100379.78
2022-11-10T04:47:39.274Z,100371.19
2022-11-10T04:48:33.828Z,100381.13
2022-11-10T04:49:24.853Z,100384.75
2022-11-10T04:50:16.408Z,100384.50
2022-11-10T04:51:44.435Z,100392.50
2022-11-10T04:52:36.989Z,100394.19
2022-11-10T04:53:26.553Z,100397.56
2022-11-10T04:54:20.088Z,100387.16
2022-11-10T04:55:10.909Z,100396.97
2022-11-10T04:56:02.664Z,100395.16
2022-11-10T04:56:51.932Z,100405.94
2022-11-10T04:57:39.734Z,100406.88
2022-11-10T04:58:29.919Z,100413.91
2022-11-10T04:59:19.383Z,100404.09
2022-11-10T05:00:16.122Z,100405.22
2022-11-10T05:01:06.917Z,100408.97
2022-11-10T05:01:56.337Z,100414.53
2022-11-10T05:02:46.785Z,100406.28
2022-11-10T05:03:37.878Z,100412.34
2022-11-10T05:04:32.839Z,100414.03
2022-11-10T05:05:24.015Z,100412.97
2022-11-10T05:06:12.355Z,100411.50
2022-11-10T05:07:01.485Z,100416.69
2022-11-10T05:07:52.555Z,100420.19
2022-11-10T05:08:41.567Z,100421.78
2022-11-10T05:09:31.973Z,100419.97
2022-11-10T05:10:20.236Z,100422.75
2022-11-10T05:11:13.117Z,100419.97
2022-11-10T05:12:03.985Z,100421.78
2022-11-10T05:12:53.469Z,100420.06
2022-11-10T05:13:42.948Z,100416.47
2022-11-10T05:14:33.093Z,100413.78
2022-11-10T05:15:20.086Z,100418.28
2022-11-10T05:16:08.165Z,100418.28
2022-11-10T05:17:00.054Z,100416.59
2022-11-10T05:17:48.193Z,100426.63
2022-11-10T05:18:41.233Z,100417.66
2022-11-10T05:19:28.968Z,100422.88
2022-11-10T05:20:18.137Z,100424.44
2022-11-10T05:21:09.145Z,100423.59
2022-11-10T05:21:59.276Z,100424.31
2022-11-10T05:22:49.354Z,100418.03
2022-11-10T05:23:40.324Z,100432.31
2022-11-10T05:24:35.165Z,100425.28
2022-11-10T05:25:23.211Z,100424.44
2022-11-10T05:26:09.869Z,100423.59
2022-11-10T05:26:57.022Z,100427.34
2022-11-10T05:27:48.100Z,100428.59
2022-11-10T05:28:38.313Z,100434.38
2022-11-10T05:29:32.514Z,100434.38
2022-11-10T05:30:21.271Z,100433.41
2022-11-10T05:31:11.404Z,100435.34
2022-11-10T05:32:02.154Z,100435.22
2022-11-10T05:32:52.429Z,100439.72
2022-11-10T05:33:46.496Z,100433.41
2022-11-10T05:34:35.965Z,100439.72
2022-11-10T05:35:25.143Z,100443.31
2022-11-10T05:36:14.070Z,100449.59
2022-11-10T05:37:03.304Z,100442.38
2022-11-10T05:37:53.100Z,100456.53
2022-11-10T05:38:48.013Z,100443.91
2022-11-10T05:39:36.603Z,100445.03
2022-11-10T05:40:26.418Z,100453.84
2022-11-10T05:41:16.856Z,100451.31
2022-11-10T05:42:08.016Z,100451.06
2022-11-10T05:42:59.541Z,100450.13
2022-11-10T05:43:57.188Z,100454.69
2022-11-10T05:44:49.846Z,100455.56
2022-11-10T05:45:42.737Z,100457.34
2022-11-10T05:46:36.209Z,100456.41
2022-11-10T05:47:29.391Z,100463.44
2022-11-10T05:48:20.921Z,100462.44
2022-11-10T05:50:15.495Z,100461.97
2022-11-10T05:51:05.921Z,100465.34
2022-11-10T05:51:54.667Z,100466.44
2022-11-10T05:52:47.643Z,100466.34
2022-11-10T05:53:42.733Z,100471.53
2022-11-10T05:54:37.187Z,100467.66
2022-11-10T05:55:27.208Z,100466.22
2022-11-10T05:56:16.848Z,100466.56
2022-11-10T05:57:07.738Z,100468.13
2022-11-10T05:57:56.286Z,100471.53
2022-11-10T05:58:45.621Z,100474.09
2022-11-10T05:59:33.973Z,100474.91
2022-11-10T06:00:26.414Z,100491.84
2022-11-10T06:01:16.410Z,100487.50
2022-11-10T06:02:05.534Z,100489.31
2022-11-10T06:02:53.514Z,100491.72
2022-11-10T06:03:47.729Z,100496.09
2022-11-10T06:04:36.455Z,100491.13
2022-11-10T06:05:30.662Z,100498.28
2022-11-10T06:06:17.843Z,100492.84
2022-11-10T06:07:08.308Z,100495.50
2022-11-10T06:07:57.527Z,100494.50
2022-11-10T06:08:56.500Z,100493.69
2022-11-10T06:09:48.021Z,100497.94
2022-11-10T06:10:40.166Z,100497.06
2022-11-10T06:11:31.685Z,100496.34
2022-11-10T06:12:24.013Z,100498.16
2022-11-10T06:13:22.595Z,100498.28
2022-11-10T06:14:14.498Z,100499.13
2022-11-10T06:15:04.162Z,100492.09
2022-11-10T06:15:53.326Z,100495.63
2022-11-10T06:16:41.792Z,100493.56
2022-11-10T06:17:33.804Z,100505.03
2022-11-10T06:18:31.945Z,100507.81
2022-11-10T06:19:21.406Z,100508.81
2022-11-10T06:20:09.456Z,100518.59
2022-11-10T06:20:59.532Z,100515.22
2022-11-10T06:21:55.417Z,100515.09
2022-11-10T06:22:48.051Z,100506.28
2022-11-10T06:23:44.001Z,100515.22
2022-11-10T06:24:34.139Z,100515.94
2022-11-10T06:25:23.564Z,100517.75
2022-11-10T06:26:14.930Z,100517.63
2022-11-10T06:27:05.674Z,100519.47
2022-11-10T06:27:55.767Z,100525.63
2022-11-10T06:28:51.880Z,100524.78
2022-11-10T06:29:43.195Z,100532.66
2022-11-10T06:30:33.439Z,100534.34
2022-11-10T06:31:24.614Z,100530.94
2022-11-10T06:32:15.398Z,100535.69
2022-11-10T06:33:06.059Z,100532.03
2022-11-10T06:34:05.766Z,100536.28
2022-11-10T06:34:57.848Z,100533.75
2022-11-10T06:35:48.657Z,100537.00
2022-11-10T06:36:41.423Z,100540.66
2022-11-10T06:37:30.542Z,100540.66
2022-11-10T06:38:17.336Z,100542.56
2022-11-10T06:39:12.759Z,100533.75
2022-11-10T06:40:01.350Z,100541.00
2022-11-10T06:40:52.846Z,100539.91
2022-11-10T06:41:45.563Z,100549.84
2022-11-10T06:42:36.983Z,100540.88
2022-11-10T06:43:29.770Z,100546.22
2022-11-10T06:44:26.526Z,100544.28
2022-11-10T06:45:16.516Z,100550.44
2022-11-10T06:46:07.231Z,100544.50
2022-11-10T06:46:57.692Z,100547.88
2022-11-10T06:47:47.940Z,100546.94
2022-11-10T06:48:42.011Z,100559.28
2022-11-10T06:49:35.977Z,100557.69
2022-11-10T06:50:26.893Z,100552.25
2022-11-10T06:51:16.928Z,100561.94
2022-11-10T06:52:07.231Z,100561.19
2022-11-10T06:52:55.433Z,100564.84
2022-11-10T06:53:45.286Z,100559.41
2022-11-10T06:54:34.913Z,100561.94
2022-11-10T06:55:28.437Z,100561.94
2022-11-10T06:56:14.922Z,100564.72
2022-11-10T06:57:03.105Z,100567.41
2022-11-10T06:57:53.855Z,100573.56
2022-11-10T06:58:41.875Z,100568.22
2022-11-10T06:59:28.649Z,100568.94
2022-11-10T07:00:15.922Z,100569.94
2022-11-10T07:02:07.270Z,100569.81
2022-11-10T07:02:56.625Z,100576.94
2022-11-10T07:04:17.541Z,100580.59
2022-11-10T07:04:59.676Z,100579.38
2022-11-10T07:05:51.505Z,100578.66
2022-11-10T07:06:44.238Z,100583.13
2022-11-10T07:07:35.302Z,100586.88
2022-11-10T07:08:31.533Z,100585.91
2022-11-10T07:09:21.439Z,100585.06
2022-11-10T07:10:14.718Z,100589.41
2022-11-10T07:11:07.349Z,100595.09
2022-11-10T07:12:00.357Z,100598.72
2022-11-10T07:12:50.261Z,100594.13
2022-11-10T07:13:44.557Z,100596.91
2022-11-10T07:14:35.646Z,100589.88
2022-11-10T07:15:27.275Z,100597.88
2022-11-10T07:16:14.044Z,100591.47
2022-11-10T07:17:00.051Z,100586.28
2022-11-10T07:17:49.617Z,100593.28
2022-11-10T07:18:37.283Z,100595.09
2022-11-10T07:19:25.769Z,100595.09
2022-11-10T07:20:10.966Z,100599.34
2022-11-10T07:20:58.694Z,100588.94
2022-11-10T07:21:46.851Z,100594.25
2022-11-10T07:22:34.076Z,100597.75
2022-11-10T07:23:26.324Z,100596.81
2022-11-10T07:24:14.420Z,100602.84
2022-11-10T07:25:02.100Z,100599.59
2022-11-10T07:25:48.606Z,100594.25
2022-11-10T07:26:35.920Z,100597.75
2022-11-10T07:27:22.814Z,100597.88
2022-11-10T07:28:21.464Z,100597.88
2022-11-10T07:29:11.813Z,100591.72
2022-11-10T07:29:58.998Z,100597.88
2022-11-10T07:30:45.283Z,100598.09
2022-11-10T07:31:34.976Z,100604.03
2022-11-10T07:32:23.802Z,100600.66
2022-11-10T07:33:12.686Z,100600.66
2022-11-10T07:34:07.568Z,100605.97
2022-11-10T07:34:55.988Z,100605.03
2022-11-10T07:35:45.047Z,100615.56
2022-11-10T07:36:34.269Z,100601.50
2022-11-10T07:37:23.259Z,100605.75
2022-11-10T07:38:20.973Z,100612.28
2022-11-10T07:39:11.842Z,100605.03
2022-11-10T07:40:00.801Z,100614.69
2022-11-10T07:40:49.210Z,100615.56
2022-11-10T07:41:36.815Z,100621.00
2022-11-10T07:42:25.356Z,100617.47
2022-11-10T07:43:13.937Z,100622.78
2022-11-10T07:44:03.328Z,100627.50
2022-11-10T07:44:56.088Z,100626.44
2022-11-10T07:45:45.116Z,100626.44
2022-11-10T07:46:34.618Z,100632.59
2022-11-10T07:47:23.682Z,100627.41
2022-11-10T07:48:13.234Z,100626.31
2022-11-10T07:49:05.971Z,100631.66
2022-11-10T07:49:54.929Z,100637.94
2022-11-10T07:50:44.393Z,100632.59
2022-11-10T07:51:33.528Z,100636.00
2022-11-10T07:52:22.767Z,100629.81
2022-11-10T07:53:15.031Z,100625.59
2022-11-10T07:54:11.740Z,100635.16
2022-11-10T07:54:58.499Z,100639.53
2022-11-10T07:55:45.257Z,100636.88
2022-11-10T07:56:34.710Z,100637.94
2022-11-10T07:57:25.061Z,100637.94
2022-11-10T07:58:14.205Z,100636.00
2022-11-10T07:59:08.256Z,100641.44
2022-11-10T07:59:58.194Z,100639.75
2022-11-10T08:00:45.626Z,100646.66
2022-11-10T08:01:34.208Z,100645.09
2022-11-10T08:02:23.658Z,100643.03
2022-11-10T08:03:12.760Z,100650.28
2022-11-10T08:04:00.699Z,100649.19
2022-11-10T08:04:53.468Z,100650.28
2022-11-10T08:05:42.364Z,100651.25
2022-11-10T08:06:35.794Z,100659.22
2022-11-10T08:07:24.123Z,100656.56
2022-11-10T08:08:12.684Z,100667.94
2022-11-10T08:09:01.558Z,100670.59
2022-11-10T08:09:49.940Z,100674.38
2022-11-10T08:10:42.623Z,100662.00
2022-11-10T08:11:35.313Z,100665.28
2022-11-10T08:12:24.394Z,100668.22
2022-11-10T08:13:13.638Z,100664.78
2022-11-10T08:14:05.998Z,100670.88
2022-11-10T08:14:54.084Z,100670.47
2022-11-10T08:15:43.519Z,100670.22
2022-11-10T08:16:32.499Z,100673.75
2022-11-10T08:17:20.474Z,100681.75
2022-11-10T08:18:11.174Z,100670.88
2022-11-10T08:19:05.387Z,100674.38
2022-11-10T08:19:54.542Z,100673.53
2022-11-10T08:20:43.895Z,100676.19
2022-11-10T08:21:32.561Z,100678.84
2022-11-10T08:22:20.332Z,100677.16
2022-11-10T08:23:07.675Z,100676.19
2022-11-10T08:23:55.576Z,100681.63
2022-11-10T08:24:46.603Z,100681.53
2022-11-10T08:25:35.491Z,100685.03
2022-11-10T08:26:23.958Z,100687.81
2022-11-10T08:27:14.298Z,100687.81
2022-11-10T08:28:07.869Z,100685.13
2022-11-10T08:28:58.885Z,100692.28
2022-11-10T08:29:47.026Z,100693.97
2022-11-10T08:30:35.221Z,100692.28
2022-11-10T08:31:23.237Z,100695.66
2022-11-10T08:32:10.714Z,100695.78
2022-11-10T08:32:58.956Z,100695.91
2022-11-10T08:33:46.008Z,100697.72
2022-11-10T08:34:34.155Z,100706.44
2022-11-10T08:35:21.122Z,100694.94
2022-11-10T08:36:08.788Z,100702.28
2022-11-10T08:36:57.644Z,100701.94
2022-11-10T08:37:46.741Z,100710.81
2022-11-10T08:38:43.546Z,100710.81
2022-11-10T08:39:39.315Z,100708.88
2022-11-10T08:40:28.715Z,100715.88
2022-11-10T08:41:16.658Z,100709.72
2022-11-10T08:42:05.654Z,100709.09
2022-11-10T08:42:54.436Z,100716.38
2022-11-10T08:43:50.690Z,100710.81
2022-11-10T08:44:39.830Z,100716.97
2022-11-10T08:45:26.358Z,100719.75
2022-11-10T08:46:14.196Z,100713.31
2022-11-10T08:47:05.003Z,100714.31
2022-11-10T08:47:55.923Z,100715.16
2022-11-10T08:48:46.825Z,100710.81
2022-11-10T08:49:42.463Z,100716.38
2022-11-10T08:50:31.919Z,100712.59
2022-11-10T08:51:20.698Z,100710.66
2022-11-10T08:52:08.031Z,100719.75
2022-11-10T08:52:58.441Z,100721.47
2022-11-10T08:53:51.878Z,100721.56
2022-11-10T08:54:40.127Z,100722.63
2022-11-10T08:55:27.810Z,100731.56
2022-11-10T08:56:18.640Z,100738.50
2022-11-10T08:57:08.200Z,100730.75
2022-11-10T08:57:57.932Z,100724.34
2022-11-10T08:58:53.588Z,100727.00
2022-11-10T08:59:42.169Z,100732.94
2022-11-10T09:00:32.733Z,100736.69
2022-11-10T09:01:25.256Z,100733.91
2022-11-10T09:02:16.011Z,100738.38
2022-11-10T09:03:11.541Z,100738.50
2022-11-10T09:04:05.425Z,100741.88
2022-11-10T09:04:57.795Z,100743.81
2022-11-10T09:05:57.669Z,100745.66
2022-11-10T09:06:48.382Z,100747.44
2022-11-10T09:07:39.407Z,100746.72
2022-11-10T09:08:37.769Z,100747.31
2022-11-10T09:09:27.991Z,100754.25
2022-11-10T09:10:22.289Z,100744.44
2022-11-10T09:12:04.471Z,100743.47
2022-11-10T09:12:52.913Z,100742.63
2022-11-10T09:13:45.124Z,100754.97
2022-11-10T09:14:35.746Z,100749.75
2022-11-10T09:15:26.079Z,100760.41
2022-11-10T09:16:15.675Z,100759.47
2022-11-10T09:17:05.490Z,100761.91
2022-11-10T09:17:56.066Z,100760.19
2022-11-10T09:18:51.189Z,100767.44
2022-11-10T09:19:40.611Z,100769.13
2022-11-10T09:20:31.768Z,100761.13
2022-11-10T09:21:19.972Z,100765.50
2022-11-10T09:22:11.053Z,100760.19
2022-11-10T09:23:04.074Z,100754.03
2022-11-10T09:23:54.181Z,100768.41
2022-11-10T09:24:43.216Z,100761.50
2022-11-10T09:25:33.123Z,100758.84
2022-11-10T09:26:21.847Z,100770.44
2022-11-10T09:27:10.025Z,100763.53
2022-11-10T09:28:04.621Z,100763.41
2022-11-10T09:28:52.362Z,100774.72
2022-11-10T09:29:39.750Z,100766.72
2022-11-10T09:30:28.457Z,100771.91
2022-11-10T09:31:18.076Z,100762.47
2022-11-10T09:32:08.149Z,100771.63
2022-11-10T09:32:59.501Z,100773.13
2022-11-10T09:33:54.828Z,100775.56
2022-11-10T09:34:46.611Z,100772.88
2022-11-10T09:35:35.619Z,100766.56
2022-11-10T09:36:25.947Z,100768.50
2022-11-10T09:37:16.002Z,100769.13
2022-11-10T09:38:12.101Z,100765.50
2022-11-10T09:39:06.243Z,100773.28
2022-11-10T09:40:01.435Z,100775.09
2022-11-10T09:41:06.100Z,100774.44
2022-11-10T09:41:53.147Z,100773.72
2022-11-10T09:42:47.260Z,100767.34
2022-11-10T09:43:49.728Z,100776.16
2022-11-10T09:44:35.158Z,100774.22
2022-11-10T09:45:24.595Z,100776.16
2022-11-10T09:46:10.076Z,100783.31
2022-11-10T09:47:19.049Z,100781.00
2022-11-10T09:48:36.098Z,100785.34
2022-11-10T09:49:38.939Z,100780.16
2022-11-10T09:50:37.893Z,100780.03
2022-11-10T09:51:26.286Z,100783.53
2022-11-10T09:52:14.558Z,100787.03
2022-11-10T09:53:01.850Z,100802.78
2022-11-10T09:53:55.380Z,100795.75
2022-11-10T09:54:55.666Z,100801.19